createdAt,value
2019-04-11T00:01:14.241Z,102144.80
2019-04-11T00:03:43.935Z,102148.77
2019-04-11T00:06:13.475Z,102150.98
2019-04-11T00:08:43.967Z,102153.48
2019-04-11T00:11:13.680Z,102154.45
2019-04-11T00:13:43.250Z,102164.52
2019-04-11T00:16:13.114Z,102154.14
2019-04-11T00:18:42.994Z,102163.60
2019-04-11T00:21:12.858Z,102164.02
2019-04-11T00:23:42.710Z,102158.01
2019-04-11T00:26:12.323Z,102167.92
2019-04-11T00:28:41.826Z,102164.14
2019-04-11T00:31:11.248Z,102171.02
2019-04-11T00:33:40.704Z,102172.25
2019-04-11T00:36:10.392Z,102164.12
2019-04-11T00:38:40.291Z,102165.70
2019-04-11T00:41:10.207Z,102161.97
2019-04-11T00:43:42.142Z,102161.90
2019-04-11T00:46:11.758Z,102162.88
2019-04-11T00:48:41.857Z,102162.40
2019-04-11T00:51:11.900Z,102159.97
2019-04-11T00:53:42.372Z,102161.73
2019-04-11T00:56:12.425Z,102159.44
2019-04-11T00:58:41.918Z,102165.97
2019-04-11T01:01:11.460Z,102170.33
2019-04-11T01:03:41.114Z,102179.88
2019-04-11T01:06:10.596Z,102188.05
2019-04-11T01:08:40.019Z,102181.95
2019-04-11T01:11:09.906Z,102180.36
2019-04-11T01:13:47.272Z,102191.09
2019-04-11T01:16:15.117Z,102185.91
2019-04-11T01:18:44.544Z,102181.77
2019-04-11T01:21:14.231Z,102185.78
2019-04-11T01:23:43.639Z,102184.85
2019-04-11T01:26:13.046Z,102185.85
2019-04-11T01:28:42.937Z,102189.42
2019-04-11T01:31:15.542Z,102190.84
2019-04-11T01:33:46.265Z,102187.72
2019-04-11T01:36:15.752Z,102194.03
2019-04-11T01:38:46.812Z,102195.94
2019-04-11T01:41:16.310Z,102199.97
2019-04-11T01:43:53.399Z,102193.07
2019-04-11T01:46:18.120Z,102194.87
2019-04-11T01:48:52.135Z,102193.88
2019-04-11T01:51:21.558Z,102195.61
2019-04-11T01:53:51.111Z,102202.05
2019-04-11T01:56:21.100Z,102198.67
2019-04-11T01:58:51.018Z,102205.33
2019-04-11T02:01:30.751Z,102212.34
2019-04-11T02:04:05.733Z,102212.51
2019-04-11T02:06:36.233Z,102213.63
2019-04-11T02:09:11.543Z,102215.78
2019-04-11T02:11:41.566Z,102220.13
2019-04-11T02:14:16.106Z,102220.16
2019-04-11T02:16:43.336Z,102223.88
2019-04-11T02:19:14.071Z,102216.72
2019-04-11T02:21:44.230Z,102219.55
2019-04-11T02:24:15.524Z,102219.52
2019-04-11T02:26:47.199Z,102213.89
2019-04-11T02:29:17.311Z,102217.31
2019-04-11T02:31:47.293Z,102217.77
2019-04-11T02:34:16.973Z,102223.70
2019-04-11T02:36:46.610Z,102219.94
2019-04-11T02:39:19.535Z,102230.81
2019-04-11T02:41:48.032Z,102226.06
2019-04-11T02:44:33.761Z,102235.80
2019-04-11T02:46:59.847Z,102225.12
2019-04-11T02:49:21.548Z,102231.53
2019-04-11T02:51:53.390Z,102227.89
2019-04-11T02:54:26.170Z,102232.41
2019-04-11T02:56:54.858Z,102225.48
2019-04-11T02:59:25.518Z,102228.90
2019-04-11T03:01:58.149Z,102230.54
2019-04-11T03:04:29.004Z,102224.73
2019-04-11T03:07:00.093Z,102229.64
2019-04-11T03:09:31.297Z,102231.63
2019-04-11T03:12:02.827Z,102235.83
2019-04-11T03:14:46.369Z,102234.87
2019-04-11T03:17:14.073Z,102234.64
2019-04-11T03:19:49.518Z,102235.06
2019-04-11T03:22:07.908Z,102238.97
2019-04-11T03:24:39.259Z,102231.33
2019-04-11T03:27:11.528Z,102231.62
2019-04-11T03:29:42.972Z,102247.16
2019-04-11T03:32:48.827Z,102243.44
2019-04-11T03:35:51.268Z,102245.88
2019-04-11T03:37:40.103Z,102252.47
2019-04-11T03:40:07.895Z,102247.48
2019-04-11T03:42:35.173Z,102250.98
2019-04-11T03:45:13.806Z,102250.02
2019-04-11T03:47:34.853Z,102251.86
2019-04-11T03:50:00.277Z,102254.83
2019-04-11T03:52:25.623Z,102260.58
2019-04-11T03:54:56.235Z,102262.91
2019-04-11T03:57:27.678Z,102259.27
2019-04-11T03:59:58.777Z,102262.05
2019-04-11T04:02:30.601Z,102260.27
2019-04-11T04:05:01.342Z,102262.88
2019-04-11T04:07:31.979Z,102259.70
2019-04-11T04:10:03.020Z,102265.32
2019-04-11T04:12:33.761Z,102272.03
2019-04-11T04:15:10.716Z,102271.31
2019-04-11T04:17:49.626Z,102281.48
2019-04-11T04:20:24.678Z,102278.10
2019-04-11T04:23:00.893Z,102272.04
2019-04-11T04:25:32.390Z,102275.58
2019-04-11T04:28:03.047Z,102276.17
2019-04-11T04:30:33.658Z,102272.91
2019-04-11T04:33:04.782Z,102280.31
2019-04-11T04:35:36.185Z,102281.57
2019-04-11T04:38:07.320Z,102284.98
2019-04-11T04:40:53.776Z,102284.37
2019-04-11T04:43:10.346Z,102293.03
2019-04-11T04:45:57.854Z,102290.87
2019-04-11T04:48:15.543Z,102297.14
2019-04-11T04:50:44.625Z,102295.94
2019-04-11T04:53:14.364Z,102295.34
2019-04-11T04:55:45.710Z,102295.31
2019-04-11T04:58:15.886Z,102294.22
2019-04-11T05:00:48.449Z,102294.65
2019-04-11T05:03:17.982Z,102295.75
2019-04-11T05:05:48.496Z,102304.02
2019-04-11T05:08:18.571Z,102305.23
2019-04-11T05:11:07.896Z,102309.48
2019-04-11T05:13:38.649Z,102314.45
2019-04-11T05:16:17.307Z,102312.43
2019-04-11T05:18:39.970Z,102318.50
2019-04-11T05:21:10.696Z,102318.52
2019-04-11T05:23:59.568Z,102318.05
2019-04-11T05:26:29.022Z,102312.88
2019-04-11T05:28:58.436Z,102322.50
2019-04-11T05:31:27.849Z,102321.01
2019-04-11T05:33:57.277Z,102322.03
2019-04-11T05:36:26.772Z,102325.77
2019-04-11T05:38:56.217Z,102318.24
2019-04-11T05:41:26.198Z,102325.73
2019-04-11T05:43:55.849Z,102321.83
2019-04-11T05:46:33.534Z,102322.00
2019-04-11T05:49:00.576Z,102331.37
2019-04-11T05:51:36.865Z,102330.36
2019-04-11T05:54:05.804Z,102331.98
2019-04-11T05:56:33.784Z,102337.89
2019-04-11T05:59:05.328Z,102329.30
2019-04-11T06:01:39.675Z,102334.53
2019-04-11T06:04:21.905Z,102340.95
2019-04-11T06:06:59.985Z,102339.84
2019-04-11T06:09:35.066Z,102343.97
2019-04-11T06:12:13.680Z,102345.77
2019-04-11T06:14:44.884Z,102360.31
2019-04-11T06:17:16.077Z,102357.73
2019-04-11T06:19:47.991Z,102352.75
2019-04-11T06:22:19.797Z,102355.97
2019-04-11T06:25:08.625Z,102352.16
2019-04-11T06:27:41.179Z,102351.82
2019-04-11T06:30:13.429Z,102351.67
2019-04-11T06:32:47.841Z,102355.25
2019-04-11T06:35:31.025Z,102355.23
2019-04-11T06:38:06.069Z,102356.85
2019-04-11T06:40:40.177Z,102361.84
2019-04-11T06:43:20.304Z,102364.88
2019-04-11T06:46:07.753Z,102363.04
2019-04-11T06:48:56.158Z,102368.68
2019-04-11T06:51:28.158Z,102371.63
2019-04-11T06:54:15.285Z,102367.12
2019-04-11T06:56:47.578Z,102363.77
2019-04-11T06:59:24.589Z,102360.27
2019-04-11T07:01:55.357Z,102353.88
2019-04-11T07:04:27.359Z,102356.16
2019-04-11T07:06:58.579Z,102354.86
2019-04-11T07:09:30.841Z,102352.33
2019-04-11T07:12:03.453Z,102352.20
2019-04-11T07:14:35.436Z,102352.13
2019-04-11T07:17:23.063Z,102362.81
2019-04-11T07:20:10.922Z,102365.66
2019-04-11T07:22:59.408Z,102369.11
2019-04-11T07:25:31.091Z,102378.20
2019-04-11T07:28:02.277Z,102380.88
2019-04-11T07:30:51.811Z,102378.75
2019-04-11T07:33:22.917Z,102387.46
2019-04-11T07:36:10.484Z,102384.51
2019-04-11T07:38:58.848Z,102385.70
2019-04-11T07:41:39.931Z,102389.64
2019-04-11T07:44:17.746Z,102380.85
2019-04-11T07:46:55.830Z,102379.34
2019-04-11T07:49:32.908Z,102376.25
2019-04-11T07:52:04.622Z,102370.44
2019-04-11T07:54:34.829Z,102386.41
2019-04-11T07:57:21.155Z,102381.92
2019-04-11T08:00:08.281Z,102380.19
2019-04-11T08:02:57.645Z,102377.02
2019-04-11T08:05:45.147Z,102378.39
2019-04-11T08:08:18.713Z,102372.16
2019-04-11T08:10:52.766Z,102371.66
2019-04-11T08:13:23.839Z,102376.77
2019-04-11T08:16:12.527Z,102377.64
2019-04-11T08:18:59.309Z,102382.23
2019-04-11T08:21:46.629Z,102388.27
2019-04-11T08:24:25.865Z,102390.30
2019-04-11T08:27:09.416Z,102389.78
2019-04-11T08:29:39.343Z,102387.60
2019-04-11T08:32:27.503Z,102394.00
2019-04-11T08:35:08.131Z,102396.67
2019-04-11T08:37:41.893Z,102393.63
2019-04-11T08:40:13.464Z,102393.48
2019-04-11T08:42:50.892Z,102389.05
2019-04-11T08:45:22.178Z,102393.42
2019-04-11T08:47:55.663Z,102384.81
2019-04-11T08:50:26.092Z,102390.69
2019-04-11T08:53:00.429Z,102383.32
2019-04-11T08:55:44.591Z,102387.67
2019-04-11T08:58:04.467Z,102386.18
2019-04-11T09:00:35.691Z,102392.13
2019-04-11T09:03:19.697Z,102393.92
2019-04-11T09:05:51.297Z,102395.95
2019-04-11T09:08:23.783Z,102396.88
2019-04-11T09:11:04.541Z,102396.23
2019-04-11T09:13:39.734Z,102402.33
2019-04-11T09:16:13.572Z,102396.17
2019-04-11T09:18:44.124Z,102394.99
2019-04-11T09:21:18.293Z,102390.09
2019-04-11T09:23:48.134Z,102387.92
2019-04-11T09:26:23.338Z,102388.23
2019-04-11T09:28:53.563Z,102375.09
2019-04-11T09:31:41.467Z,102381.25
2019-04-11T09:34:19.633Z,102377.89
2019-04-11T09:36:51.341Z,102375.09
2019-04-11T09:39:28.889Z,102372.14
2019-04-11T09:42:00.929Z,102377.14
2019-04-11T09:44:44.812Z,102372.28
2019-04-11T09:47:26.235Z,102373.03
2019-04-11T09:50:14.096Z,102374.94
2019-04-11T09:52:51.591Z,102377.81
2019-04-11T09:55:39.595Z,102367.41
2019-04-11T09:58:19.637Z,102363.52
2019-04-11T10:00:51.196Z,102370.27
2019-04-11T10:03:25.657Z,102363.13
2019-04-11T10:06:12.753Z,102364.35
2019-04-11T10:08:44.279Z,102360.87
2019-04-11T10:11:32.538Z,102357.11
2019-04-11T10:14:09.401Z,102350.91
2019-04-11T10:16:44.322Z,102354.44
2019-04-11T10:19:15.825Z,102353.14
2019-04-11T10:22:03.276Z,102356.42
2019-04-11T10:24:34.650Z,102362.05
2019-04-11T10:27:24.719Z,102365.23
2019-04-11T10:30:13.057Z,102355.87
2019-04-11T10:33:02.736Z,102350.34
2019-04-11T10:35:34.566Z,102357.03
2019-04-11T10:38:06.700Z,102355.95
2019-04-11T10:40:53.018Z,102354.92
2019-04-11T10:43:22.770Z,102357.66
2019-04-11T10:46:02.918Z,102354.05
2019-04-11T10:48:39.459Z,102345.57
2019-04-11T10:51:06.813Z,102346.42
2019-04-11T10:53:37.375Z,102344.03
2019-04-11T10:56:11.565Z,102350.33
2019-04-11T10:59:01.535Z,102344.94
2019-04-11T11:01:48.504Z,102353.31
2019-04-11T11:04:23.446Z,102350.14
2019-04-11T11:06:55.881Z,102357.45
2019-04-11T11:09:30.231Z,102355.39
2019-04-11T11:12:05.128Z,102355.33
2019-04-11T11:14:39.631Z,102348.30
2019-04-11T11:17:11.160Z,102348.91
2019-04-11T11:20:10.706Z,102342.30
2019-04-11T11:22:33.742Z,102349.59
2019-04-11T11:25:19.852Z,102347.59
2019-04-11T11:27:50.263Z,102348.33
2019-04-11T11:30:27.466Z,102344.38
2019-04-11T11:32:58.022Z,102340.05
2019-04-11T11:35:32.341Z,102344.63
2019-04-11T11:38:02.093Z,102355.49
2019-04-11T11:40:50.080Z,102348.07
2019-04-11T11:43:21.255Z,102349.03
2019-04-11T11:46:08.476Z,102358.00
2019-04-11T11:48:46.384Z,102355.67
2019-04-11T11:51:31.296Z,102358.89
2019-04-11T11:54:08.136Z,102360.17
2019-04-11T11:56:40.259Z,102353.75
2019-04-11T11:59:23.271Z,102344.34
2019-04-11T12:01:57.051Z,102346.77
2019-04-11T12:04:32.944Z,102361.31
2019-04-11T12:07:03.715Z,102349.37
2019-04-11T12:09:36.376Z,102343.55
2019-04-11T12:12:11.405Z,102343.41
2019-04-11T12:14:49.582Z,102347.66
2019-04-11T12:17:37.827Z,102338.97
2019-04-11T12:20:18.597Z,102342.97
2019-04-11T12:22:49.580Z,102338.76
2019-04-11T12:25:25.092Z,102343.64
2019-04-11T12:28:04.092Z,102343.34
2019-04-11T12:30:37.474Z,102336.13
2019-04-11T12:33:08.940Z,102342.07
2019-04-11T12:35:42.657Z,102340.06
2019-04-11T12:38:28.549Z,102335.42
2019-04-11T12:41:08.284Z,102335.46
2019-04-11T12:43:57.666Z,102340.25
2019-04-11T12:46:44.797Z,102332.77
2019-04-11T12:49:27.963Z,102337.44
2019-04-11T12:52:15.393Z,102338.20
2019-04-11T12:54:46.495Z,102336.43
2019-04-11T12:57:17.550Z,102334.02
2019-04-11T12:59:48.656Z,102333.05
2019-04-11T13:02:32.185Z,102323.55
2019-04-11T13:05:01.969Z,102327.51
2019-04-11T13:07:33.487Z,102326.02
2019-04-11T13:10:04.583Z,102329.64
2019-04-11T13:12:35.725Z,102325.86
2019-04-11T13:15:08.907Z,102314.33
2019-04-11T13:17:48.659Z,102316.31
2019-04-11T13:20:22.168Z,102311.11
2019-04-11T13:22:53.248Z,102313.48
2019-04-11T13:25:40.161Z,102303.83
2019-04-11T13:28:09.669Z,102301.52
2019-04-11T13:30:49.703Z,102305.02
2019-04-11T13:33:20.815Z,102304.37
2019-04-11T13:36:08.310Z,102306.99
2019-04-11T13:38:38.531Z,102299.97
2019-04-11T13:41:25.835Z,102300.47
2019-04-11T13:43:56.474Z,102286.78
2019-04-11T13:46:30.239Z,102293.64
2019-04-11T13:49:01.314Z,102296.91
2019-04-11T13:51:32.795Z,102287.67
2019-04-11T13:54:20.727Z,102291.50
2019-04-11T13:57:08.283Z,102279.33
2019-04-11T13:59:55.093Z,102281.92
2019-04-11T14:02:28.609Z,102278.72
2019-04-11T14:05:00.053Z,102282.92
2019-04-11T14:07:34.125Z,102288.50
2019-04-11T14:10:05.832Z,102285.73
2019-04-11T14:12:35.618Z,102284.05
2019-04-11T14:15:08.760Z,102287.52
2019-04-11T14:17:41.915Z,102277.03
2019-04-11T14:20:29.432Z,102272.81
2019-04-11T14:23:04.582Z,102272.42
2019-04-11T14:25:39.053Z,102269.03
2019-04-11T14:28:10.137Z,102264.84
2019-04-11T14:30:41.715Z,102274.46
2019-04-11T14:33:11.202Z,102264.68
2019-04-11T14:35:42.358Z,102261.47
2019-04-11T14:38:13.450Z,102257.84
2019-04-11T14:41:01.971Z,102260.45
2019-04-11T14:43:34.985Z,102260.86
2019-04-11T14:46:22.250Z,102257.53
2019-04-11T14:48:53.613Z,102258.67
2019-04-11T14:51:43.949Z,102260.72
2019-04-11T14:54:18.296Z,102267.41
2019-04-11T14:56:52.523Z,102263.84
2019-04-11T14:59:26.628Z,102261.05
2019-04-11T15:02:01.251Z,102248.88
2019-04-11T15:04:32.567Z,102257.48
2019-04-11T15:07:03.636Z,102264.03
2019-04-11T15:09:50.718Z,102259.23
2019-04-11T15:12:22.002Z,102259.06
2019-04-11T15:14:59.048Z,102256.80
2019-04-11T15:17:30.103Z,102255.16
2019-04-11T15:20:09.949Z,102256.92
2019-04-11T15:22:56.744Z,102261.08
2019-04-11T15:25:30.351Z,102260.81
2019-04-11T15:28:01.435Z,102256.58
2019-04-11T15:30:49.371Z,102254.74
2019-04-11T15:33:20.819Z,102258.58
2019-04-11T15:35:58.585Z,102258.59
2019-04-11T15:38:45.587Z,102251.73
2019-04-11T15:41:15.044Z,102260.70
2019-04-11T15:44:02.160Z,102260.80
2019-04-11T15:46:33.608Z,102259.69
2019-04-11T15:49:30.017Z,102265.61
2019-04-11T15:51:55.783Z,102266.36
2019-04-11T15:54:42.227Z,102273.99
2019-04-11T15:57:13.710Z,102271.27
2019-04-11T15:59:44.771Z,102277.09
2019-04-11T16:02:18.249Z,102271.95
2019-04-11T16:04:49.325Z,102273.61
2019-04-11T16:07:37.808Z,102268.02
2019-04-11T16:10:11.913Z,102272.94
2019-04-11T16:12:42.613Z,102272.82
2019-04-11T16:15:18.965Z,102269.77
2019-04-11T16:18:05.925Z,102275.14
2019-04-11T16:20:35.987Z,102268.81
2019-04-11T16:23:13.196Z,102267.84
2019-04-11T16:25:44.238Z,102273.52
2019-04-11T16:28:20.777Z,102271.78
2019-04-11T16:30:55.002Z,102276.36
2019-04-11T16:33:45.675Z,102273.46
2019-04-11T16:36:17.670Z,102273.97
2019-04-11T16:38:54.783Z,102281.70
2019-04-11T16:41:42.318Z,102287.36
2019-04-11T16:44:25.617Z,102285.17
2019-04-11T16:47:13.311Z,102292.55
2019-04-11T16:49:42.740Z,102290.83
2019-04-11T16:52:12.162Z,102287.83
2019-04-11T16:54:41.617Z,102290.52
2019-04-11T16:57:13.567Z,102299.96
2019-04-11T16:59:42.206Z,102301.31
2019-04-11T17:02:11.732Z,102300.64
2019-04-11T17:04:41.145Z,102301.75
2019-04-11T17:07:26.077Z,102302.02
2019-04-11T17:09:57.495Z,102308.64
2019-04-11T17:12:27.255Z,102301.84
2019-04-11T17:14:56.811Z,102299.05
2019-04-11T17:17:26.435Z,102299.41
2019-04-11T17:19:55.932Z,102300.05
2019-04-11T17:22:25.363Z,102304.96
2019-04-11T17:24:54.802Z,102305.84
2019-04-11T17:27:24.328Z,102306.39
2019-04-11T17:29:55.417Z,102299.07
2019-04-11T17:32:25.811Z,102306.66
2019-04-11T17:34:56.316Z,102308.73
2019-04-11T17:37:26.004Z,102311.10
2019-04-11T17:39:55.588Z,102316.97
2019-04-11T17:42:25.105Z,102322.91
2019-04-11T17:44:54.548Z,102319.31
2019-04-11T17:47:26.759Z,102324.39
2019-04-11T17:49:55.166Z,102323.14
2019-04-11T17:52:24.706Z,102327.76
2019-04-11T17:54:54.782Z,102323.45
2019-04-11T17:57:26.620Z,102327.45
2019-04-11T17:59:56.809Z,102326.42
2019-04-11T18:02:26.664Z,102329.13
2019-04-11T18:04:58.769Z,102342.24
2019-04-11T18:07:27.464Z,102341.20
2019-04-11T18:09:56.908Z,102338.37
2019-04-11T18:12:26.838Z,102342.75
2019-04-11T18:14:56.241Z,102342.91
2019-04-11T18:17:25.679Z,102341.92
2019-04-11T18:19:55.157Z,102352.02
2019-04-11T18:22:24.938Z,102348.69
2019-04-11T18:24:54.460Z,102350.92
2019-04-11T18:27:25.034Z,102352.73
2019-04-11T18:29:57.211Z,102351.42
2019-04-11T18:32:26.864Z,102351.79
2019-04-11T18:34:56.471Z,102352.77
2019-04-11T18:37:25.954Z,102361.30
2019-04-11T18:39:55.557Z,102357.52
2019-04-11T18:42:25.035Z,102361.02
2019-04-11T18:44:54.455Z,102372.73
2019-04-11T18:47:23.965Z,102375.70
2019-04-11T18:49:53.801Z,102381.08
2019-04-11T18:52:25.415Z,102372.78
2019-04-11T18:54:54.435Z,102379.25
2019-04-11T18:57:23.898Z,102377.30
2019-04-11T18:59:53.360Z,102380.20
2019-04-11T19:02:23.810Z,102378.27
2019-04-11T19:04:53.313Z,102390.29
2019-04-11T19:07:28.075Z,102392.47
2019-04-11T19:09:54.045Z,102390.61
2019-04-11T19:12:23.454Z,102386.25
2019-04-11T19:14:52.947Z,102392.16
2019-04-11T19:17:22.367Z,102396.05
2019-04-11T19:19:52.074Z,102401.61
2019-04-11T19:22:36.788Z,102400.39
2019-04-11T19:24:52.649Z,102407.05
2019-04-11T19:27:22.048Z,102407.63
2019-04-11T19:29:51.492Z,102409.42
2019-04-11T19:32:20.910Z,102408.63
2019-04-11T19:34:50.615Z,102404.44
2019-04-11T19:37:20.111Z,102414.86
2019-04-11T19:39:49.517Z,102414.16
2019-04-11T19:42:19.794Z,102416.70
2019-04-11T19:44:50.234Z,102411.98
2019-04-11T19:47:21.774Z,102412.55
2019-04-11T19:49:51.033Z,102411.13
2019-04-11T19:52:20.490Z,102413.67
2019-04-11T19:54:49.896Z,102419.45
2019-04-11T19:57:19.320Z,102419.14
2019-04-11T19:59:48.770Z,102416.90
2019-04-11T20:02:18.192Z,102418.41
2019-04-11T20:04:47.622Z,102421.11
2019-04-11T20:07:17.039Z,102431.23
2019-04-11T20:09:46.467Z,102428.69
2019-04-11T20:12:15.908Z,102428.28
2019-04-11T20:14:45.342Z,102439.00
2019-04-11T20:17:19.052Z,102428.88
2019-04-11T20:19:45.911Z,102427.74
2019-04-11T20:22:15.800Z,102436.73
2019-04-11T20:24:46.814Z,102436.53
2019-04-11T20:27:19.995Z,102434.56
2019-04-11T20:29:51.068Z,102436.38
2019-04-11T20:32:18.888Z,102438.78
2019-04-11T20:34:48.307Z,102433.03
2019-04-11T20:37:17.738Z,102427.30
2019-04-11T20:39:47.573Z,102437.08
2019-04-11T20:42:17.489Z,102447.66
2019-04-11T20:44:48.603Z,102445.12
2019-04-11T20:47:18.618Z,102444.64
2019-04-11T20:49:48.769Z,102445.06
2019-04-11T20:52:18.421Z,102449.09
2019-04-11T20:54:47.869Z,102450.70
2019-04-11T20:57:25.624Z,102452.45
